Great Barrington, MA

7:58 AM EDT on September 29, 2016 (GMT -0400)
GB Anderson St | | Change Station

Elev 715 ft 42.20 °N, 73.35 °W | Updated 3 minutes ago

Clear
Clear
54.2 °F
Feels Like 54.2 °F
N
1.0
Wind Variable Wind from NE
Gusts 9.0 mph

Today
High -- | Low -- °F
--% Chance of Precip.
Yesterday
High -- | Low -- °F
Precip. -- in
Pressure 30.39 in
Visibility 10.0 miles
Clouds Clear
Dew Point 47 °F
Humidity 77%
Rainfall 0.00 in
Snow Depth Not available.
6:48 AM 6:37 PM
Waning Crescent, 2% visible
METAR KPSF 291154Z AUTO 06009KT 10SM CLR 11/06 A3041 RMK AO2 SLP290 T01060061 10117 20100 53013
Pressure 30.39 in
Visibility 10.0 miles
Clouds Clear
Dew Point 47 °F
Humidity 77%
Rainfall 0.00 in
Snow Depth Not available.
6:48 AM 6:37 PM
Waning Crescent, 2% visible
METAR KPSF 291154Z AUTO 06009KT 10SM CLR 11/06 A3041 RMK AO2 SLP290 T01060061 10117 20100 53013

10-Day Weather Forecast

Almanac

Astronomy

Sep. 29, 2016 Rise Set
Actual Time
Civil Twilight
Nautical Twilight
Astronomical Twilight
Moon
Length of Visible Light
Length of Day
Tomorrow will be .
, % of the Moon is Illuminated

Today's Extremes

State Highs State Lows

Community

WunderPhotos

Upload Photos

1,942,463 photos uploaded!

WunderBlog® & News

Nearby

Air Quality

  Air Quality AQ Index Pollutant
Not available.

Snow Depth

Station Depth Elevation

Earthquake Activity

City Distance Mag. Time & Date
Minimum magnitude displayed is 2.5.

Coastal Water Temperatures

Place Temperature

Stations

Nearby Weather Stations

Station Location Temp. Windchill Dew Point Humidity Wind Precip. Elev Updated Type
                   

Watches & Warnings

There are currently no watches in effect.